Time;durP1;ratioP1;P1;durP2;ratioP2;P2;SDS_P1;SDS_P2;PMS_P1;PMS_P2;Temp;Humidity;BMP_temperature;BMP_pressure;BME280_temperature;BME280_humidity;BME280_pressure;Samples;Min_cycle;Max_cycle;Signal;HPM_P1;HPM_P2
2022/11/04 00:01:25;;;;;;;1.48;0.80;;;;;;;11.56;48.53;99822.22;4897040;29;20086;-82
2022/11/04 00:03:55;;;;;;;0.50;0.50;;;;;;;11.58;48.05;99825.66;4882275;29;20045;-81
2022/11/04 00:06:23;;;;;;;1.02;0.65;;;;;;;11.55;48.31;99830.63;4891076;29;20045;-83
2022/11/04 00:08:51;;;;;;;1.77;0.88;;;;;;;11.54;48.41;99826.19;4886685;29;20079;-81
2022/11/04 00:14:05;;;;;;;0.70;0.70;;;;;;;11.53;48.47;99833.53;4874881;29;20095;-81
2022/11/04 00:19:20;;;;;;;1.52;0.80;;;;;;;11.52;48.12;99842.78;4883050;29;20052;-82
2022/11/04 00:30:09;;;;;;;1.67;0.90;;;;;;;11.45;47.62;99860.03;4886734;29;20049;-81
2022/11/04 00:35:24;;;;;;;1.48;0.70;;;;;;;11.42;47.76;99869.44;4888718;29;20045;-81
2022/11/04 00:37:51;;;;;;;1.33;0.90;;;;;;;11.41;47.87;99864.97;4885402;29;20052;-82
2022/11/04 00:40:19;;;;;;;1.35;0.70;;;;;;;11.41;47.65;99867.72;4882789;29;20053;-81
2022/11/04 00:42:47;;;;;;;3.30;0.80;;;;;;;11.40;47.71;99871.47;4889145;29;20049;-80
2022/11/04 00:45:15;;;;;;;2.03;1.00;;;;;;;11.41;47.84;99878.69;4888766;29;20077;-82
2022/11/04 00:47:43;;;;;;;1.13;0.80;;;;;;;11.39;47.92;99874.41;4884927;29;20052;-81
2022/11/04 00:50:11;;;;;;;1.55;0.90;;;;;;;11.36;47.84;99868.22;4889373;29;20057;-81
2022/11/04 00:52:40;;;;;;;4.68;1.13;;;;;;;11.36;47.68;99881.06;4907190;29;20116;-81
2022/11/04 00:55:09;;;;;;;1.65;1.02;;;;;;;11.37;47.71;99882.78;4906074;29;20061;-83
2022/11/04 00:57:37;;;;;;;1.67;1.08;;;;;;;11.35;47.72;99887.56;4905801;29;20088;-82
2022/11/04 01:00:06;;;;;;;0.98;0.77;;;;;;;11.34;47.78;99892.19;4905024;29;20045;-81
2022/11/04 01:02:33;;;;;;;2.03;1.00;;;;;;;11.35;48.07;99899.38;4901520;23;20048;-84
2022/11/04 01:05:02;;;;;;;1.75;1.00;;;;;;;11.34;47.76;99894.91;4918599;29;20052;-83
2022/11/04 01:07:31;;;;;;;2.83;1.30;;;;;;;11.33;48.34;99895.94;4911501;29;20047;-83
2022/11/04 01:10:00;;;;;;;1.73;1.10;;;;;;;11.33;48.10;99906.88;4915825;29;20063;-83
2022/11/04 01:12:27;;;;;;;2.08;1.00;;;;;;;11.31;48.16;99908.94;4921992;29;20097;-83
2022/11/04 01:14:55;;;;;;;2.45;1.30;;;;;;;11.31;48.56;99908.06;4928587;29;20050;-83
2022/11/04 01:17:23;;;;;;;1.88;1.10;;;;;;;11.29;48.24;99919.22;4928244;29;20031;-83
2022/11/04 01:19:51;;;;;;;3.10;1.10;;;;;;;11.30;48.58;99922.81;4933652;29;20106;-83
2022/11/04 01:22:19;;;;;;;2.08;1.10;;;;;;;11.30;48.89;99928.28;4933753;29;20055;-84
2022/11/04 01:24:47;;;;;;;1.85;1.00;;;;;;;11.30;48.78;99925.56;4913233;29;20051;-83
2022/11/04 01:27:16;;;;;;;2.15;1.00;;;;;;;11.31;48.56;99930.84;4928638;29;20052;-83
2022/11/04 01:29:44;;;;;;;3.05;1.15;;;;;;;11.30;48.70;99931.03;4949441;28;20051;-81
2022/11/04 01:32:12;;;;;;;2.63;1.10;;;;;;;11.31;48.62;99943.69;4949531;29;20112;-82
2022/11/04 01:34:40;;;;;;;1.88;1.08;;;;;;;11.31;48.41;99947.28;4951669;28;20078;-82
2022/11/04 01:37:11;;;;;;;2.00;1.10;;;;;;;11.31;48.99;99932.72;4941765;28;20498;-82
2022/11/04 01:39:38;;;;;;;2.58;1.10;;;;;;;11.31;48.85;99932.72;4952745;28;20098;-82
2022/11/04 01:42:06;;;;;;;1.38;0.90;;;;;;;11.31;48.57;99941.78;4951732;28;20156;-83
2022/11/04 01:44:51;;;;;;;1.88;1.10;;;;;;;11.32;48.85;99940.78;4947717;28;20058;-83
2022/11/04 01:47:23;;;;;;;2.10;1.02;;;;;;;11.30;48.35;99951.06;4945844;29;20069;-83
2022/11/04 01:49:56;;;;;;;1.67;1.10;;;;;;;11.31;48.58;99957.38;4940635;29;20135;-83
2022/11/04 01:52:28;;;;;;;1.75;1.08;;;;;;;11.31;48.70;99958.22;4946737;28;20418;-82
2022/11/04 01:55:02;;;;;;;2.08;1.10;;;;;;;11.31;48.84;99974.66;4946569;28;20474;-83
2022/11/04 01:57:36;;;;;;;2.90;1.02;;;;;;;11.33;48.89;99964.41;4943627;28;20051;-83
2022/11/04 02:00:09;;;;;;;2.53;1.10;;;;;;;11.33;48.87;99963.56;4941660;28;20114;-83
2022/11/04 02:02:56;;;;;;;2.22;1.20;;;;;;;11.33;49.10;99972.63;4945893;29;20391;-83
2022/11/04 02:05:24;;;;;;;4.07;1.23;;;;;;;11.31;48.61;99968.31;4949985;28;20056;-83
2022/11/04 02:07:57;;;;;;;2.75;1.23;;;;;;;11.33;48.94;99964.41;4939359;29;20054;-83
2022/11/04 02:10:26;;;;;;;2.80;1.20;;;;;;;11.32;48.49;99972.78;4950518;28;20066;-82
2022/11/04 02:12:54;;;;;;;2.35;1.20;;;;;;;11.32;48.44;99981.88;4945085;29;20585;-82
2022/11/04 02:15:35;;;;;;;2.95;1.50;;;;;;;11.35;48.99;99981.56;4948687;28;20442;-83
2022/11/04 02:18:21;;;;;;;3.33;1.40;;;;;;;11.34;49.10;99981.72;4944659;28;20050;-83
2022/11/04 02:21:25;;;;;;;2.60;1.30;;;;;;;11.31;48.63;99976.53;4944092;28;20044;-83
2022/11/04 02:24:19;;;;;;;2.03;1.30;;;;;;;11.32;48.79;99965.44;4947423;29;20050;-83
2022/11/04 02:27:18;;;;;;;2.80;1.30;;;;;;;11.29;48.44;99970.41;4948821;28;20130;-83
2022/11/04 02:30:07;;;;;;;2.72;1.30;;;;;;;11.27;48.63;99969.69;4942764;29;20387;-83
2022/11/04 02:32:46;;;;;;;3.20;1.38;;;;;;;11.28;48.58;99961.31;4951910;28;20097;-83
2022/11/04 02:35:21;;;;;;;2.85;1.42;;;;;;;11.27;48.59;99962.34;4939286;29;20106;-83
2022/11/04 02:37:58;;;;;;;2.33;1.17;;;;;;;11.27;48.75;99965.06;4965523;28;20048;-83
2022/11/04 02:40:36;;;;;;;2.28;1.10;;;;;;;11.27;48.37;99956.84;4958605;28;20044;-83
2022/11/04 02:43:13;;;;;;;2.05;1.02;;;;;;;11.27;48.67;99953.25;4940060;28;20537;-82
2022/11/04 02:45:46;;;;;;;2.35;1.38;;;;;;;11.26;48.27;99951.53;4950458;29;20065;-83
2022/11/04 02:48:24;;;;;;;2.60;0.93;;;;;;;11.26;48.54;99951.53;4953397;28;20047;-83
2022/11/04 02:50:58;;;;;;;1.88;1.17;;;;;;;11.24;48.01;99956.31;4953381;28;20047;-83
2022/11/04 02:53:33;;;;;;;2.65;1.10;;;;;;;11.24;48.05;99950.81;4945330;28;20047;-83
2022/11/04 02:56:04;;;;;;;1.80;1.00;;;;;;;11.21;48.27;99951.16;4945212;28;20054;-82
2022/11/04 02:58:36;;;;;;;5.10;1.50;;;;;;;11.20;48.21;99950.31;4941809;29;20553;-83
2022/11/04 03:01:08;;;;;;;3.97;1.30;;;;;;;11.18;48.11;99952.34;4947221;29;20404;-83
2022/11/04 03:03:40;;;;;;;1.98;1.02;;;;;;;11.19;47.98;99962.28;4952585;29;20047;-83
2022/11/04 03:06:12;;;;;;;4.40;1.23;;;;;;;11.16;48.29;99953.50;4950075;28;20055;-82
2022/11/04 03:08:46;;;;;;;2.88;1.08;;;;;;;11.15;48.35;99969.06;4956547;28;20062;-83
2022/11/04 03:11:17;;;;;;;2.38;1.10;;;;;;;11.15;47.91;99960.00;4944442;28;20066;-83
2022/11/04 03:13:50;;;;;;;3.17;1.02;;;;;;;11.15;48.38;99957.25;4949349;29;20062;-83
2022/11/04 03:16:23;;;;;;;3.53;1.02;;;;;;;11.14;48.05;99958.31;4948101;28;20043;-83
2022/11/04 03:19:01;;;;;;;2.65;0.90;;;;;;;11.13;47.83;99960.19;4945681;29;20053;-83
2022/11/04 03:21:33;;;;;;;2.40;1.05;;;;;;;11.11;48.05;99953.13;4951747;28;20510;-83
2022/11/04 03:24:03;;;;;;;2.75;1.20;;;;;;;11.07;47.96;99944.38;4951227;28;20051;-83
2022/11/04 03:26:38;;;;;;;2.88;1.20;;;;;;;11.09;47.97;99944.22;4945311;28;20047;-83
2022/11/04 03:29:17;;;;;;;1.80;0.82;;;;;;;11.08;47.92;99951.56;4951304;29;20043;-83
2022/11/04 03:31:52;;;;;;;1.98;0.93;;;;;;;11.08;48.23;99953.44;4949336;29;20114;-83
2022/11/04 03:34:20;;;;;;;3.55;1.30;;;;;;;11.04;47.73;99950.19;4951977;28;20043;-83
2022/11/04 03:36:47;;;;;;;2.28;1.10;;;;;;;11.04;48.13;99955.66;4939369;28;20055;-84
2022/11/04 03:39:15;;;;;;;2.15;0.75;;;;;;;11.03;48.16;99958.56;4958902;29;20061;-83
2022/11/04 03:41:47;;;;;;;2.35;0.90;;;;;;;11.03;48.01;99961.28;4954837;29;20058;-83
2022/11/04 03:44:15;;;;;;;3.77;1.20;;;;;;;10.98;48.14;99968.09;4950983;28;20074;-83
2022/11/04 03:46:43;;;;;;;1.83;0.90;;;;;;;11.00;47.80;99965.19;4954710;28;20486;-83
2022/11/04 03:49:13;;;;;;;2.30;1.10;;;;;;;10.99;47.77;99975.28;4947589;28;20066;-83
2022/11/04 03:51:41;;;;;;;3.08;1.02;;;;;;;10.97;47.83;99971.00;4938416;28;20057;-83
2022/11/04 03:54:09;;;;;;;3.13;0.95;;;;;;;10.96;47.95;99972.88;4962529;28;20046;-82
2022/11/04 03:56:56;;;;;;;2.58;1.00;;;;;;;10.96;48.13;99975.63;4949509;28;20058;-83
2022/11/04 03:59:44;;;;;;;2.78;0.85;;;;;;;10.95;47.92;99970.31;4946525;28;20040;-82
2022/11/04 04:02:17;;;;;;;3.40;1.00;;;;;;;10.93;48.11;99975.06;4946645;28;20502;-83
2022/11/04 04:04:56;;;;;;;2.50;0.88;;;;;;;10.92;48.00;99966.00;4944092;28;20058;-83
2022/11/04 04:07:31;;;;;;;3.75;1.00;;;;;;;10.91;47.81;99969.75;4943522;28;20052;-83
2022/11/04 04:10:37;;;;;;;2.28;0.90;;;;;;;10.89;47.67;99963.59;4950510;29;20047;-83
2022/11/04 04:12:58;;;;;;;1.88;0.90;;;;;;;10.88;47.83;99966.47;4941386;29;20514;-82
2022/11/04 04:15:30;;;;;;;2.30;0.80;;;;;;;10.86;47.77;99963.03;4944432;29;20276;-83
2022/11/04 04:18:03;;;;;;;3.40;1.05;;;;;;;10.84;47.80;99963.19;4941339;28;20052;-83
2022/11/04 04:20:37;;;;;;;2.65;1.00;;;;;;;10.86;47.79;99971.25;4940918;28;20065;-83
2022/11/04 04:27:29;;;;;;;4.13;1.45;;;;;;;10.84;47.98;99974.13;4954000;28;20047;-82
2022/11/04 04:28:47;;;;;;;3.75;0.93;;;;;;;10.82;47.61;99975.28;4947521;28;20053;-83
2022/11/04 04:31:48;;;;;;;3.67;1.10;;;;;;;10.82;47.73;99972.56;4950601;28;20099;-82
2022/11/04 04:34:06;;;;;;;2.30;0.93;;;;;;;10.80;47.99;99971.88;4944325;29;20091;-82
2022/11/04 04:36:42;;;;;;;3.42;0.95;;;;;;;10.82;47.86;99976.16;4935978;28;20482;-83
2022/11/04 04:45:00;;;;;;;2.13;0.80;;;;;;;10.77;47.80;99972.19;4948525;29;20130;-83
2022/11/04 04:47:32;;;;;;;3.20;1.00;;;;;;;10.79;47.85;99972.91;4945265;28;20055;-83
2022/11/04 04:50:01;;;;;;;1.52;0.75;;;;;;;10.77;47.89;99977.66;4955100;28;20082;-83
2022/11/04 04:52:33;;;;;;;3.10;0.70;;;;;;;10.78;48.03;99980.25;4952060;29;20052;-82
2022/11/04 04:55:01;;;;;;;3.38;1.33;;;;;;;10.76;47.81;99985.00;4947035;29;20051;-83
2022/11/04 04:57:29;;;;;;;2.53;1.10;;;;;;;10.77;47.57;99991.34;4948229;29;20070;-81
2022/11/04 04:59:56;;;;;;;2.60;1.02;;;;;;;10.78;47.92;99999.41;4959530;28;20039;-82
2022/11/04 05:02:24;;;;;;;4.22;1.20;;;;;;;10.77;47.78;99994.94;4954167;29;20055;-82
2022/11/04 05:04:52;;;;;;;4.53;1.17;;;;;;;10.77;47.75;99994.09;4958169;28;20454;-83
2022/11/04 05:07:20;;;;;;;3.83;1.40;;;;;;;10.77;47.72;99991.34;4947011;28;20039;-83
2022/11/04 05:09:49;;;;;;;4.07;1.70;;;;;;;10.78;47.99;99996.66;4957123;29;20051;-83
2022/11/04 05:12:18;;;;;;;3.35;1.30;;;;;;;10.75;47.58;99977.81;4947124;29;20107;-82
2022/11/04 05:14:45;;;;;;;3.78;1.60;;;;;;;10.75;47.64;99977.81;4947024;29;20047;-82
2022/11/04 05:17:14;;;;;;;2.72;1.10;;;;;;;10.75;47.48;99979.69;4946779;28;20055;-82
2022/11/04 05:19:45;;;;;;;2.20;1.08;;;;;;;10.76;47.91;99981.41;4966409;28;20459;-83
2022/11/04 05:22:13;;;;;;;3.28;1.20;;;;;;;10.75;47.99;99993.38;4954016;28;20492;-82
2022/11/04 05:24:41;;;;;;;5.55;2.15;;;;;;;10.72;47.33;99993.72;4947307;29;20450;-82
2022/11/04 05:27:10;;;;;;;7.53;4.18;;;;;;;10.74;47.44;99991.66;4967123;28;20332;-82
2022/11/04 05:29:38;;;;;;;8.70;4.70;;;;;;;10.72;47.86;99994.56;4956570;29;20499;-83
2022/11/04 05:32:06;;;;;;;8.00;4.57;;;;;;;10.70;47.38;99999.31;4950808;28;20515;-83
2022/11/04 05:34:33;;;;;;;7.22;4.30;;;;;;;10.70;47.65;99993.00;4953305;29;20047;-82
2022/11/04 05:37:01;;;;;;;6.70;3.75;;;;;;;10.68;47.69;99995.88;4948449;28;20051;-83
2022/11/04 05:39:29;;;;;;;8.60;4.22;;;;;;;10.68;47.52;100005.97;4947261;28;20050;-82
2022/11/04 05:41:57;;;;;;;6.70;3.50;;;;;;;10.66;47.69;99999.78;4943295;28;20051;-82
2022/11/04 05:44:26;;;;;;;4.63;2.35;;;;;;;10.66;47.20;99999.78;4949458;29;20134;-82
2022/11/04 05:46:54;;;;;;;4.97;1.95;;;;;;;10.64;47.59;100005.44;4945283;28;20542;-82
2022/11/04 05:49:22;;;;;;;5.60;3.70;;;;;;;10.61;47.32;100005.72;4951973;29;20047;-82
2022/11/04 05:51:50;;;;;;;6.35;3.00;;;;;;;10.59;47.48;99997.66;4947358;28;20070;-82
2022/11/04 05:54:18;;;;;;;3.13;1.92;;;;;;;10.56;47.37;100010.81;4944069;28;20490;-83
2022/11/04 05:56:46;;;;;;;5.85;2.20;;;;;;;10.55;47.55;100009.09;4951773;28;20071;-82
2022/11/04 05:59:14;;;;;;;4.55;1.83;;;;;;;10.52;47.56;100014.84;4945490;29;20051;-82
2022/11/04 06:01:43;;;;;;;3.53;1.17;;;;;;;10.51;47.00;100022.19;4947218;28;20047;-82
2022/11/04 06:04:14;;;;;;;2.60;1.02;;;;;;;10.50;47.06;100019.59;4949220;28;20138;-82
2022/11/04 06:06:42;;;;;;;4.95;1.20;;;;;;;10.47;46.90;100028.13;4950317;29;20059;-82
2022/11/04 06:09:10;;;;;;;2.75;1.38;;;;;;;10.44;46.79;100023.81;4953471;28;20043;-82
2022/11/04 06:11:39;;;;;;;3.22;1.30;;;;;;;10.44;47.10;100020.22;4948695;28;20079;-81
2022/11/04 06:14:07;;;;;;;3.47;1.20;;;;;;;10.40;47.08;100027.84;4952469;28;20450;-82
2022/11/04 06:16:36;;;;;;;3.67;1.00;;;;;;;10.37;47.11;100024.59;4944556;28;20047;-82
2022/11/04 06:19:05;;;;;;;3.83;1.40;;;;;;;10.36;46.99;100040.13;4955627;28;20051;-82
2022/11/04 06:21:38;;;;;;;3.38;1.20;;;;;;;10.33;47.10;100037.69;4956359;28;20067;-82
2022/11/04 06:24:08;;;;;;;2.58;1.30;;;;;;;10.32;47.02;100044.16;4962027;28;20047;-82
2022/11/04 06:26:38;;;;;;;2.90;1.33;;;;;;;10.32;46.68;100052.38;4963010;28;20054;-82
2022/11/04 06:29:08;;;;;;;3.28;1.33;;;;;;;10.31;47.03;100058.88;4953185;28;20032;-82
2022/11/04 06:31:36;;;;;;;2.15;1.10;;;;;;;10.28;47.04;100055.59;4953002;28;20353;-82
2022/11/04 06:34:06;;;;;;;2.83;1.30;;;;;;;10.26;46.97;100066.66;4952327;28;20062;-81
2022/11/04 06:36:34;;;;;;;2.42;1.30;;;;;;;10.23;46.70;100065.09;4954053;28;20051;-82
2022/11/04 06:39:02;;;;;;;3.40;1.63;;;;;;;10.21;46.79;100066.28;4946433;28;20495;-82
2022/11/04 06:41:32;;;;;;;2.88;1.20;;;;;;;10.18;47.09;100072.91;4949218;28;20047;-82
2022/11/04 06:43:59;;;;;;;3.38;1.40;;;;;;;10.17;47.47;100071.16;4945022;29;20067;-82
2022/11/04 06:46:31;;;;;;;3.70;1.77;;;;;;;10.17;46.85;100076.63;4952319;28;20049;-82
2022/11/04 06:48:59;;;;;;;4.50;1.50;;;;;;;10.16;47.42;100074.91;4956338;28;20043;-82
2022/11/04 06:51:28;;;;;;;3.35;1.60;;;;;;;10.17;47.04;100078.50;4956635;28;20046;-81
2022/11/04 06:53:56;;;;;;;5.18;1.70;;;;;;;10.15;47.48;100083.28;4953681;29;20438;-82
2022/11/04 06:56:25;;;;;;;3.53;1.60;;;;;;;10.15;47.37;100083.28;4946900;28;20063;-81
2022/11/04 06:58:56;;;;;;;2.60;1.30;;;;;;;10.14;47.56;100078.84;4954357;28;20122;-82
2022/11/04 07:01:29;;;;;;;3.95;1.67;;;;;;;10.16;47.39;100091.31;4942946;28;20047;-82
2022/11/04 07:03:59;;;;;;;3.42;1.67;;;;;;;10.14;47.36;100084.31;4951511;23;20044;-71
2022/11/04 07:06:29;;;;;;;4.28;1.75;;;;;;;10.16;47.18;100090.44;4920989;28;20043;-70
2022/11/04 07:08:58;;;;;;;5.13;1.98;;;;;;;10.16;47.19;100093.19;4906054;29;20446;-72
2022/11/04 07:11:29;;;;;;;4.40;1.70;;;;;;;10.15;47.08;100091.50;4904495;29;20445;-71
2022/11/04 07:13:57;;;;;;;4.68;1.83;;;;;;;10.13;46.96;100093.50;4905419;29;20199;-70
2022/11/04 07:16:25;;;;;;;4.10;2.17;;;;;;;10.12;47.47;100099.97;4904960;29;20584;-74
2022/11/04 07:18:54;;;;;;;3.42;1.50;;;;;;;10.13;47.61;100107.19;4908453;29;20107;-72
2022/11/04 07:21:22;;;;;;;3.95;1.70;;;;;;;10.11;47.65;100107.31;4905725;29;20052;-72
2022/11/04 07:23:51;;;;;;;4.88;1.70;;;;;;;10.12;47.70;100105.44;4905961;29;20433;-73
2022/11/04 07:26:20;;;;;;;3.33;1.70;;;;;;;10.12;47.41;100110.91;4904445;29;20357;-73
2022/11/04 07:28:48;;;;;;;4.25;1.40;;;;;;;10.11;47.60;100117.41;4906865;29;20313;-73
2022/11/04 07:31:16;;;;;;;4.53;1.98;;;;;;;10.10;47.78;100113.78;4908515;29;20103;-73
2022/11/04 07:33:48;;;;;;;2.92;1.60;;;;;;;10.12;47.92;100122.72;4907034;29;20064;-73
2022/11/04 07:36:17;;;;;;;3.70;1.50;;;;;;;10.11;47.85;100126.47;4903716;29;20059;-73
2022/11/04 07:38:45;;;;;;;3.97;1.83;;;;;;;10.14;47.49;100128.91;4907138;29;20056;-73
2022/11/04 07:41:16;;;;;;;3.53;1.80;;;;;;;10.16;47.74;100134.19;4908788;29;20056;-73
2022/11/04 07:43:48;;;;;;;4.35;1.75;;;;;;;10.17;47.85;100130.47;4906175;29;20052;-73
2022/11/04 07:46:17;;;;;;;4.00;1.60;;;;;;;10.16;47.74;100135.06;4917421;29;20064;-73
2022/11/04 07:48:45;;;;;;;4.55;1.50;;;;;;;10.16;47.75;100142.41;4916565;29;20060;-73
2022/11/04 07:51:16;;;;;;;3.30;1.80;;;;;;;10.20;47.71;100154.78;4910783;29;20083;-73
2022/11/04 07:53:44;;;;;;;6.45;2.38;;;;;;;10.19;47.58;100156.66;4911810;29;20391;-73
2022/11/04 07:56:13;;;;;;;5.45;1.98;;;;;;;10.21;47.82;100161.97;4906535;29;20040;-73
2022/11/04 07:58:42;;;;;;;4.20;1.67;;;;;;;10.23;47.63;100173.63;4905030;29;20104;-73
2022/11/04 08:01:12;;;;;;;4.55;1.90;;;;;;;10.25;47.88;100174.34;4906742;29;20047;-73
2022/11/04 08:03:40;;;;;;;3.92;2.22;;;;;;;10.25;47.60;100179.78;4905654;29;20528;-73
2022/11/04 08:06:11;;;;;;;7.00;1.98;;;;;;;10.27;47.67;100174.19;4916238;29;20060;-74
2022/11/04 08:08:39;;;;;;;4.32;1.75;;;;;;;10.28;47.77;100184.97;4911688;29;20346;-73
2022/11/04 08:11:09;;;;;;;4.80;1.80;;;;;;;10.30;48.27;100180.22;4909643;29;20044;-73
2022/11/04 08:13:46;;;;;;;4.97;1.80;;;;;;;10.31;48.48;100181.97;4903941;29;20048;-72
2022/11/04 08:16:16;;;;;;;5.97;1.80;;;;;;;10.32;48.44;100186.41;4907456;29;20107;-73
2022/11/04 08:18:44;;;;;;;4.22;1.70;;;;;;;10.32;48.27;100177.34;4928058;29;20048;-72
2022/11/04 08:21:13;;;;;;;4.38;1.70;;;;;;;10.32;48.42;100183.66;4906807;29;20064;-73
2022/11/04 08:23:41;;;;;;;6.03;1.88;;;;;;;10.31;48.48;100179.22;4912068;29;20048;-73
2022/11/04 08:26:10;;;;;;;4.30;1.67;;;;;;;10.32;48.74;100180.09;4912448;29;20490;-72
2022/11/04 08:28:38;;;;;;;2.97;1.55;;;;;;;10.32;48.74;100180.09;4911794;29;20437;-72
2022/11/04 08:31:09;;;;;;;3.92;1.50;;;;;;;10.32;49.00;100180.91;4909843;29;20079;-72
2022/11/04 08:33:37;;;;;;;3.47;1.60;;;;;;;10.29;48.53;100173.03;4905959;29;20070;-71
2022/11/04 08:36:08;;;;;;;4.95;1.90;;;;;;;10.30;49.20;100173.91;4909664;29;20537;-71
2022/11/04 08:38:37;;;;;;;3.60;1.50;;;;;;;10.28;49.16;100181.38;4910978;29;20056;-72
2022/11/04 08:41:08;;;;;;;6.43;1.60;;;;;;;10.28;49.08;100182.25;4909529;29;20059;-71
2022/11/04 08:43:36;;;;;;;3.25;1.58;;;;;;;10.27;49.23;100188.72;4909372;29;20048;-71
2022/11/04 08:46:07;;;;;;;4.63;1.50;;;;;;;10.27;49.09;100186.00;4906244;29;20053;-71
2022/11/04 08:48:37;;;;;;;4.07;1.50;;;;;;;10.26;49.18;100187.00;4910249;29;20051;-71
2022/11/04 08:51:07;;;;;;;3.80;1.50;;;;;;;10.27;49.25;100190.59;4909267;29;20099;-71
2022/11/04 08:53:35;;;;;;;4.15;1.67;;;;;;;10.24;49.37;100176.19;4910842;29;20442;-72
2022/11/04 08:56:09;;;;;;;3.85;1.60;;;;;;;10.28;49.96;100181.38;4909645;29;20048;-71
2022/11/04 08:58:37;;;;;;;3.78;1.50;;;;;;;10.26;49.88;100180.66;4913331;29;20048;-71
2022/11/04 09:01:07;;;;;;;3.65;1.70;;;;;;;10.28;49.60;100178.66;4927342;29;20390;-71
2022/11/04 09:03:37;;;;;;;3.83;1.90;;;;;;;10.29;50.02;100188.59;4911816;29;20556;-71
2022/11/04 09:06:05;;;;;;;6.45;2.03;;;;;;;10.29;49.72;100191.31;4908365;29;20048;-71
2022/11/04 09:08:33;;;;;;;3.78;1.75;;;;;;;10.28;49.96;100193.19;4908804;29;20511;-71
2022/11/04 09:11:01;;;;;;;5.30;2.20;;;;;;;10.29;49.50;100192.19;4908134;29;20056;-72
2022/11/04 09:13:29;;;;;;;4.20;1.80;;;;;;;10.29;49.72;100194.06;4910521;29;20170;-71
2022/11/04 09:16:02;;;;;;;4.40;1.83;;;;;;;10.27;49.84;100196.06;4912036;29;20044;-71
2022/11/04 09:18:32;;;;;;;4.05;1.70;;;;;;;10.31;50.22;100189.31;4909358;29;20068;-72
2022/11/04 09:21:01;;;;;;;4.70;1.83;;;;;;;10.30;50.32;100195.78;4910151;29;20062;-71
2022/11/04 09:23:28;;;;;;;3.97;1.90;;;;;;;10.31;50.30;100197.50;4910997;29;20052;-71
2022/11/04 09:26:05;;;;;;;4.43;2.00;;;;;;;10.35;50.38;100193.44;4906231;29;20052;-71
2022/11/04 09:28:33;;;;;;;5.75;1.70;;;;;;;10.32;50.30;100191.88;4909520;29;20056;-71
2022/11/04 09:31:05;;;;;;;4.50;1.63;;;;;;;10.37;50.67;100203.25;4918458;29;20048;-71
2022/11/04 09:33:34;;;;;;;3.97;1.70;;;;;;;10.37;50.34;100199.63;4906377;29;20104;-71
2022/11/04 09:36:02;;;;;;;4.25;1.48;;;;;;;10.39;50.18;100187.53;4908621;29;20044;-71
2022/11/04 09:38:30;;;;;;;3.83;1.50;;;;;;;10.44;50.59;100184.34;4910498;29;20059;-71
2022/11/04 09:40:59;;;;;;;5.15;1.70;;;;;;;10.48;50.61;100177.59;4906601;29;20056;-71
2022/11/04 09:43:37;;;;;;;5.47;1.75;;;;;;;10.54;51.18;100177.00;4921361;29;20055;-71
2022/11/04 09:46:06;;;;;;;3.50;1.65;;;;;;;10.55;50.47;100182.34;4906736;29;20059;-71
2022/11/04 09:48:41;;;;;;;3.78;1.60;;;;;;;10.63;50.94;100186.19;4909397;29;20052;-72
2022/11/04 09:51:10;;;;;;;2.78;1.38;;;;;;;10.65;50.37;100190.47;4911154;29;20509;-72
2022/11/04 09:54:00;;;;;;;4.20;1.50;;;;;;;10.68;50.33;100201.13;4923798;29;20052;-72
2022/11/04 09:56:32;;;;;;;3.75;1.58;;;;;;;10.73;50.46;100201.53;4910435;29;20048;-72
2022/11/04 09:59:02;;;;;;;4.00;1.60;;;;;;;10.76;50.84;100211.31;4910830;29;20405;-72
2022/11/04 10:01:40;;;;;;;4.22;1.70;;;;;;;10.81;50.37;100212.56;4908401;29;20044;-70
2022/11/04 10:04:23;;;;;;;4.20;2.08;;;;;;;10.83;50.43;100205.09;4911258;29;20198;-72
2022/11/04 10:07:06;;;;;;;5.18;1.50;;;;;;;10.83;51.00;100206.94;4925888;29;20139;-70
2022/11/04 10:09:45;;;;;;;3.70;1.83;;;;;;;10.85;50.41;100200.31;4908897;29;20059;-72
2022/11/04 10:12:24;;;;;;;5.13;1.88;;;;;;;10.89;50.42;100200.91;4910067;29;20058;-72
2022/11/04 10:15:12;;;;;;;6.10;1.85;;;;;;;10.90;51.01;100203.44;4910703;29;20516;-71
2022/11/04 10:17:53;;;;;;;4.50;1.50;;;;;;;10.93;50.50;100205.91;4910072;29;20055;-71
2022/11/04 10:20:35;;;;;;;4.25;1.70;;;;;;;10.96;50.96;100210.22;4909508;29;20071;-72
2022/11/04 10:23:20;;;;;;;4.90;2.03;;;;;;;10.97;50.83;100211.94;4908881;29;20094;-71
2022/11/04 10:25:55;;;;;;;2.67;1.48;;;;;;;10.98;50.49;100214.50;4906623;29;20056;-71
2022/11/04 10:28:28;;;;;;;3.90;1.70;;;;;;;11.02;50.49;100216.94;4905727;29;20436;-72
2022/11/04 10:30:56;;;;;;;4.90;2.47;;;;;;;11.03;50.81;100218.69;4906986;29;20056;-72
2022/11/04 10:33:32;;;;;;;3.05;1.60;;;;;;;11.08;51.00;100211.72;4909755;29;20447;-72
2022/11/04 10:36:05;;;;;;;3.25;1.60;;;;;;;11.10;50.96;100212.44;4907970;29;20373;-71
2022/11/04 10:38:36;;;;;;;;;;;;;;;10.87;51.45;100211.13;4910268;29;20058;-72
2022/11/04 10:41:20;;;;;;;4.32;1.40;;;;;;;11.14;50.50;100216.56;4917780;29;20263;-71
2022/11/04 10:43:49;;;;;;;3.38;1.75;;;;;;;11.18;50.29;100226.22;4902666;29;20056;-72
2022/11/04 10:46:30;;;;;;;4.28;1.80;;;;;;;11.24;50.26;100222.00;4910675;29;20052;-72
2022/11/04 10:49:31;;;;;;;3.72;1.77;;;;;;;11.26;50.36;100222.69;4904097;29;20493;-71
2022/11/04 10:52:00;;;;;;;5.32;2.85;;;;;;;11.27;49.76;100221.69;4912002;29;20059;-71
2022/11/04 10:54:33;;;;;;;6.07;3.15;;;;;;;11.30;50.19;100227.75;4905207;29;20383;-71
2022/11/04 10:57:01;;;;;;;7.85;5.30;;;;;;;11.30;50.26;100235.94;4906336;29;20052;-72
2022/11/04 10:59:32;;;;;;;12.95;6.65;;;;;;;11.33;49.91;100232.03;4909213;29;20087;-71
2022/11/04 11:02:02;;;;;;;8.35;4.88;;;;;;;11.35;50.07;100252.78;4906605;29;20405;-71
2022/11/04 11:04:33;;;;;;;5.53;3.22;;;;;;;11.35;49.90;100255.53;4904701;29;20259;-71
2022/11/04 11:07:05;;;;;;;6.03;2.80;;;;;;;11.38;49.76;100258.97;4907240;29;20147;-72
2022/11/04 11:09:36;;;;;;;5.43;2.25;;;;;;;11.39;49.96;100252.47;4908192;29;20055;-71
2022/11/04 11:12:06;;;;;;;4.50;1.90;;;;;;;11.39;49.86;100252.47;4907076;29;20058;-71
2022/11/04 11:14:54;;;;;;;3.60;1.70;;;;;;;11.38;50.12;100254.34;4910003;29;20043;-72
2022/11/04 11:17:24;;;;;;;3.30;1.70;;;;;;;11.43;49.76;100253.88;4906389;29;20383;-72
2022/11/04 11:19:57;;;;;;;4.28;2.20;;;;;;;11.45;50.19;100260.06;4904947;29;20123;-71
2022/11/04 11:22:35;;;;;;;4.35;1.73;;;;;;;11.46;50.22;100259.06;4907071;29;20134;-71
2022/11/04 11:25:22;;;;;;;4.50;1.60;;;;;;;11.44;49.92;100261.94;4902841;29;20083;-71
2022/11/04 11:27:52;;;;;;;3.63;1.45;;;;;;;11.45;50.11;100262.81;4910423;29;20127;-71
2022/11/04 11:30:23;;;;;;;3.40;1.48;;;;;;;11.47;50.07;100269.00;4908370;29;20523;-71
2022/11/04 11:32:54;;;;;;;4.60;1.38;;;;;;;11.48;49.32;100271.56;4902620;29;20084;-71
2022/11/04 11:35:27;;;;;;;5.57;1.92;;;;;;;11.49;49.59;100269.69;4908718;29;20394;-72
2022/11/04 11:37:58;;;;;;;3.85;1.30;;;;;;;11.49;49.86;100277.91;4908314;29;20052;-72
2022/11/04 11:40:30;;;;;;;5.35;1.65;;;;;;;11.48;49.75;100277.06;4909653;29;20032;-71
2022/11/04 11:43:00;;;;;;;4.27;1.50;;;;;;;11.47;49.58;100277.22;4907405;29;20135;-71
2022/11/04 11:45:29;;;;;;;4.22;2.20;;;;;;;11.50;49.28;100282.38;4908120;29;20131;-69
2022/11/04 11:47:57;;;;;;;3.55;1.70;;;;;;;11.49;49.71;100275.19;4909659;29;20065;-71
2022/11/04 11:50:33;;;;;;;3.53;1.70;;;;;;;11.53;49.60;100276.59;4905871;29;20107;-71
2022/11/04 11:53:14;;;;;;;3.40;1.30;;;;;;;11.50;49.25;100280.50;4920746;29;20079;-71
2022/11/04 11:55:48;;;;;;;4.50;1.77;;;;;;;11.51;49.45;100279.50;4910569;29;20051;-71
2022/11/04 11:58:25;;;;;;;4.82;1.50;;;;;;;11.53;49.65;100285.69;4913883;29;20043;-71
2022/11/04 12:01:18;;;;;;;3.80;1.38;;;;;;;11.54;49.54;100292.03;4906876;29;20036;-71
2022/11/04 12:03:53;;;;;;;1.92;1.15;;;;;;;11.53;49.77;100287.56;4902561;29;20056;-71
2022/11/04 12:06:52;;;;;;;3.20;1.60;;;;;;;11.57;49.59;100284.34;4903427;29;20556;-73
2022/11/04 12:09:50;;;;;;;2.63;1.25;;;;;;;11.58;49.52;100280.59;4901890;29;20087;-72
2022/11/04 12:12:45;;;;;;;3.17;1.45;;;;;;;11.58;49.32;100291.56;4906071;29;20437;-72
2022/11/04 12:15:29;;;;;;;3.28;1.30;;;;;;;11.60;49.23;100292.28;4903969;29;20066;-73
2022/11/04 12:18:10;;;;;;;4.47;1.50;;;;;;;11.62;49.06;100298.50;4922118;28;20052;-73